Time;durP1;ratioP1;P1;durP2;ratioP2;P2;SDS_P1;SDS_P2;PMS_P1;PMS_P2;Temp;Humidity;BMP_temperature;BMP_pressure;BME280_temperature;BME280_humidity;BME280_pressure;Samples;Min_cycle;Max_cycle;Signal;HPM_P1;HPM_P2
2022/07/25 00:01:34;;;;;;;;;;;12.00;99.90;;;;;;5070872;28;19927;-68
2022/07/25 00:04:01;;;;;;;;;;;12.10;99.90;;;;;;5061896;28;19955;-69
2022/07/25 00:06:28;;;;;;;;;;;12.20;99.90;;;;;;5052889;28;20012;-71
2022/07/25 00:08:54;;;;;;;;;;;12.20;99.90;;;;;;5051646;28;19913;-71
2022/07/25 00:11:21;;;;;;;;;;;12.20;99.90;;;;;;5052847;28;19909;-72
2022/07/25 00:13:48;;;;;;;;;;;12.30;99.90;;;;;;5052718;28;19916;-70
2022/07/25 00:16:14;;;;;;;;;;;12.30;99.90;;;;;;5075560;28;20326;-70
2022/07/25 00:18:41;;;;;;;;;;;12.50;99.90;;;;;;5093656;28;19969;-70
2022/07/25 00:21:08;;;;;;;;;;;12.60;99.90;;;;;;5093531;28;20355;-69
2022/07/25 00:23:34;;;;;;;;;;;12.60;99.90;;;;;;5093782;28;19908;-71
2022/07/25 00:26:01;;;;;;;;;;;12.70;99.90;;;;;;5092648;28;19951;-72
2022/07/25 00:28:28;;;;;;;;;;;12.70;99.90;;;;;;5092177;28;20309;-69
2022/07/25 00:30:55;;;;;;;;;;;12.70;99.90;;;;;;5093293;28;19991;-70
2022/07/25 00:33:21;;;;;;;;;;;12.60;99.90;;;;;;5093512;28;20046;-70
2022/07/25 00:35:48;;;;;;;;;;;12.70;99.90;;;;;;5093506;28;19965;-71
2022/07/25 00:38:15;;;;;;;;;;;12.80;99.90;;;;;;5093248;28;19915;-71
2022/07/25 00:40:42;;;;;;;;;;;12.90;99.90;;;;;;5093680;28;19944;-72
2022/07/25 00:43:08;;;;;;;;;;;12.90;99.90;;;;;;5093152;28;19923;-72
2022/07/25 00:45:35;;;;;;;;;;;12.90;99.90;;;;;;5093038;28;19908;-72
2022/07/25 00:48:02;;;;;;;;;;;13.00;99.90;;;;;;5093163;28;19952;-69
2022/07/25 00:50:28;;;;;;;;;;;13.00;99.90;;;;;;5092029;28;20382;-70
2022/07/25 00:52:55;;;;;;;;;;;13.00;99.90;;;;;;5093285;28;19908;-71
2022/07/25 00:55:23;;;;;;;;;;;13.20;99.90;;;;;;5093309;28;19912;-70
2022/07/25 00:57:49;;;;;;;;;;;13.20;99.90;;;;;;5093225;28;19948;-71
2022/07/25 01:00:16;;;;;;;;;;;13.30;99.90;;;;;;5092775;28;20095;-72
2022/07/25 01:02:44;;;;;;;;;;;13.30;99.90;;;;;;5093017;28;20282;-71
2022/07/25 01:05:11;;;;;;;;;;;13.30;99.90;;;;;;5093171;28;19912;-72
2022/07/25 01:07:38;;;;;;;;;;;13.40;99.90;;;;;;5093193;28;20300;-70
2022/07/25 01:10:06;;;;;;;;;;;13.60;99.90;;;;;;5092840;28;19908;-71
2022/07/25 01:12:43;;;;;;;;;;;13.70;99.90;;;;;;5093020;28;19909;-72
2022/07/25 01:15:10;;;;;;;;;;;14.00;99.90;;;;;;5092906;28;20018;-70
2022/07/25 01:17:36;;;;;;;;;;;14.20;99.90;;;;;;5093076;28;19962;-71
2022/07/25 01:20:04;;;;;;;;;;;14.40;99.90;;;;;;5092747;28;20362;-69
2022/07/25 01:22:30;;;;;;;;;;;14.60;99.90;;;;;;5092853;28;19916;-71
2022/07/25 01:24:57;;;;;;;;;;;14.70;99.90;;;;;;5092854;28;19955;-70
2022/07/25 01:27:24;;;;;;;;;;;14.90;99.90;;;;;;5092963;28;19930;-68
2022/07/25 01:29:50;;;;;;;;;;;15.00;99.90;;;;;;5092721;28;20445;-69
2022/07/25 01:32:17;;;;;;;;;;;15.20;99.90;;;;;;5092693;28;19913;-72
2022/07/25 01:34:44;;;;;;;;;;;15.10;99.90;;;;;;5092947;28;20363;-70
2022/07/25 01:37:11;;;;;;;;;;;15.00;99.90;;;;;;5094221;28;19912;-69
2022/07/25 01:39:37;;;;;;;;;;;14.90;99.90;;;;;;5096413;28;20003;-71
2022/07/25 01:42:04;;;;;;;;;;;14.90;99.90;;;;;;5096150;28;20354;-68
2022/07/25 01:44:31;;;;;;;;;;;14.90;99.90;;;;;;5096364;28;20366;-70
2022/07/25 01:46:57;;;;;;;;;;;14.90;99.90;;;;;;5096247;28;19915;-68
2022/07/25 01:49:25;;;;;;;;;;;14.90;99.90;;;;;;5096334;28;19908;-69
2022/07/25 01:51:52;;;;;;;;;;;14.90;99.90;;;;;;5096083;28;19908;-69
2022/07/25 01:54:19;;;;;;;;;;;14.90;99.90;;;;;;5096103;28;19912;-69
2022/07/25 01:56:45;;;;;;;;;;;14.80;99.90;;;;;;5095995;28;19908;-70
2022/07/25 01:59:12;;;;;;;;;;;14.80;99.90;;;;;;5095820;28;19920;-69
2022/07/25 02:01:39;;;;;;;;;;;14.90;99.90;;;;;;5095906;28;19916;-69
2022/07/25 02:04:05;;;;;;;;;;;14.90;99.90;;;;;;5095968;28;19960;-70
2022/07/25 02:06:34;;;;;;;;;;;14.90;99.90;;;;;;5096207;28;19908;-69
2022/07/25 02:09:01;;;;;;;;;;;14.90;99.90;;;;;;5095897;28;19908;-70
2022/07/25 02:11:28;;;;;;;;;;;15.10;99.90;;;;;;5095884;28;19995;-68
2022/07/25 02:13:54;;;;;;;;;;;15.10;99.90;;;;;;5095601;28;19912;-71
2022/07/25 02:16:22;;;;;;;;;;;15.10;99.90;;;;;;5078744;28;20234;-68
2022/07/25 02:18:48;;;;;;;;;;;15.10;99.90;;;;;;5055527;28;20267;-68
2022/07/25 02:21:15;;;;;;;;;;;15.10;99.90;;;;;;5078399;28;19908;-71
2022/07/25 02:23:43;;;;;;;;;;;15.10;99.90;;;;;;5089474;28;19912;-69
2022/07/25 02:26:10;;;;;;;;;;;15.20;99.90;;;;;;5074471;28;19913;-68
2022/07/25 02:28:37;;;;;;;;;;;15.20;99.90;;;;;;5074968;28;19922;-68
2022/07/25 02:31:04;;;;;;;;;;;15.30;99.90;;;;;;5104663;28;19962;-68
2022/07/25 02:33:30;;;;;;;;;;;15.20;99.90;;;;;;5074457;28;19912;-69
2022/07/25 02:35:57;;;;;;;;;;;15.20;99.90;;;;;;5074638;28;20335;-70
2022/07/25 02:38:25;;;;;;;;;;;15.30;99.90;;;;;;5074611;28;19912;-69
2022/07/25 02:40:52;;;;;;;;;;;15.20;99.90;;;;;;5073955;28;19958;-69
2022/07/25 02:43:19;;;;;;;;;;;15.30;99.90;;;;;;5074537;28;20324;-69
2022/07/25 02:45:45;;;;;;;;;;;15.40;99.90;;;;;;5074257;28;20375;-69
2022/07/25 02:48:12;;;;;;;;;;;15.30;99.90;;;;;;5067621;28;19913;-69
2022/07/25 02:50:39;;;;;;;;;;;15.50;99.90;;;;;;5076248;28;19912;-69
2022/07/25 02:53:06;;;;;;;;;;;15.60;99.90;;;;;;5074280;28;20278;-69
2022/07/25 02:55:32;;;;;;;;;;;15.60;99.90;;;;;;5074587;28;19912;-69
2022/07/25 02:57:59;;;;;;;;;;;15.80;99.90;;;;;;5074812;28;19912;-70
2022/07/25 03:00:26;;;;;;;;;;;15.90;99.90;;;;;;5073715;28;19986;-69
2022/07/25 03:02:52;;;;;;;;;;;16.00;99.90;;;;;;5074289;28;20318;-68
2022/07/25 03:05:19;;;;;;;;;;;16.20;99.90;;;;;;5070023;28;19958;-69
2022/07/25 03:07:46;;;;;;;;;;;16.30;99.90;;;;;;5074534;28;19909;-69
2022/07/25 03:10:13;;;;;;;;;;;16.30;99.90;;;;;;5067689;28;19924;-69
2022/07/25 03:12:40;;;;;;;;;;;16.20;99.90;;;;;;5073708;28;20074;-69
2022/07/25 03:15:08;;;;;;;;;;;16.20;99.90;;;;;;5076132;28;19972;-69
2022/07/25 03:17:34;;;;;;;;;;;16.20;99.90;;;;;;5081987;28;19913;-69
2022/07/25 03:20:01;;;;;;;;;;;16.20;99.90;;;;;;5084074;28;20002;-70
2022/07/25 03:22:28;;;;;;;;;;;16.10;99.90;;;;;;5093367;28;19916;-69
2022/07/25 03:24:55;;;;;;;;;;;16.00;99.90;;;;;;5077519;28;20256;-69
2022/07/25 03:27:22;;;;;;;;;;;15.90;99.90;;;;;;5074194;28;19908;-69
2022/07/25 03:29:48;;;;;;;;;;;15.80;99.90;;;;;;5073745;28;19908;-69
2022/07/25 03:32:15;;;;;;;;;;;15.80;99.90;;;;;;5073671;28;19934;-69
2022/07/25 03:34:42;;;;;;;;;;;15.80;99.90;;;;;;5073862;28;20290;-69
2022/07/25 03:37:09;;;;;;;;;;;15.90;99.90;;;;;;5073968;28;19934;-68
2022/07/25 03:39:35;;;;;;;;;;;15.90;99.90;;;;;;5073806;28;19939;-69
2022/07/25 03:42:02;;;;;;;;;;;16.00;99.90;;;;;;5073522;28;19917;-69
2022/07/25 03:44:29;;;;;;;;;;;16.10;99.90;;;;;;5073746;28;20271;-69
2022/07/25 03:46:56;;;;;;;;;;;16.00;99.90;;;;;;5073868;28;19916;-69
2022/07/25 03:49:22;;;;;;;;;;;15.90;99.90;;;;;;5074006;28;19954;-69
2022/07/25 03:51:49;;;;;;;;;;;15.90;99.90;;;;;;5073839;28;20378;-73
2022/07/25 03:54:16;;;;;;;;;;;15.90;99.90;;;;;;5073446;28;19909;-72
2022/07/25 03:56:47;;;;;;;;;;;15.90;99.90;;;;;;5073675;28;19909;-72
2022/07/25 03:59:15;;;;;;;;;;;16.00;99.90;;;;;;5072740;28;20015;-71
2022/07/25 04:01:43;;;;;;;;;;;16.10;99.90;;;;;;5073405;28;19920;-72
2022/07/25 04:04:10;;;;;;;;;;;16.20;99.90;;;;;;5073327;28;20338;-72
2022/07/25 04:06:37;;;;;;;;;;;16.30;99.90;;;;;;5073538;28;19912;-71
2022/07/25 04:09:04;;;;;;;;;;;16.40;99.90;;;;;;5073521;28;20412;-72
2022/07/25 04:11:31;;;;;;;;;;;16.40;99.90;;;;;;5072170;28;19954;-72
2022/07/25 04:13:58;;;;;;;;;;;16.40;99.90;;;;;;5073074;28;20374;-72
2022/07/25 04:16:25;;;;;;;;;;;16.40;99.90;;;;;;5073163;28;19908;-71
2022/07/25 04:18:51;;;;;;;;;;;16.50;99.90;;;;;;5073198;28;19908;-71
2022/07/25 04:21:18;;;;;;;;;;;16.60;99.90;;;;;;5073305;28;19909;-72
2022/07/25 04:23:45;;;;;;;;;;;16.80;99.90;;;;;;5073417;28;20354;-73
2022/07/25 04:26:12;;;;;;;;;;;17.00;99.90;;;;;;5073023;28;19908;-72
2022/07/25 04:28:38;;;;;;;;;;;16.90;99.90;;;;;;5073260;28;19991;-72
2022/07/25 04:31:05;;;;;;;;;;;16.70;99.90;;;;;;5073061;28;19915;-72
2022/07/25 04:33:32;;;;;;;;;;;16.50;99.90;;;;;;5073178;28;20371;-72
2022/07/25 04:35:59;;;;;;;;;;;16.50;99.90;;;;;;5073283;28;19966;-72
2022/07/25 04:38:25;;;;;;;;;;;16.40;99.90;;;;;;5072944;28;19908;-70
2022/07/25 04:40:52;;;;;;;;;;;16.30;99.90;;;;;;5073124;28;20366;-72
2022/07/25 04:43:19;;;;;;;;;;;16.40;99.90;;;;;;5073060;28;20022;-72
2022/07/25 04:45:46;;;;;;;;;;;16.50;99.90;;;;;;5063994;28;19913;-69
2022/07/25 04:48:13;;;;;;;;;;;16.50;99.90;;;;;;5081591;28;19908;-72
2022/07/25 04:50:40;;;;;;;;;;;16.60;99.90;;;;;;5093242;28;20278;-71
2022/07/25 04:53:06;;;;;;;;;;;16.70;99.90;;;;;;5093386;28;19916;-73
2022/07/25 04:55:35;;;;;;;;;;;16.80;99.90;;;;;;5093211;28;19908;-72
2022/07/25 04:58:01;;;;;;;;;;;16.80;99.90;;;;;;5093054;28;19959;-70
2022/07/25 05:00:28;;;;;;;;;;;16.80;99.90;;;;;;5093087;28;19920;-73
2022/07/25 05:02:55;;;;;;;;;;;16.60;99.90;;;;;;5093228;28;19969;-73
2022/07/25 05:05:21;;;;;;;;;;;16.60;99.90;;;;;;5093284;28;19915;-72
2022/07/25 05:07:49;;;;;;;;;;;16.50;99.90;;;;;;5093327;28;19955;-73
2022/07/25 05:10:16;;;;;;;;;;;16.40;99.90;;;;;;5092949;28;19912;-73
2022/07/25 05:12:42;;;;;;;;;;;16.30;99.90;;;;;;5096673;28;19957;-71
2022/07/25 05:15:09;;;;;;;;;;;16.20;99.90;;;;;;5096662;28;19953;-72
2022/07/25 05:17:36;;;;;;;;;;;16.00;99.90;;;;;;5096887;28;19955;-72
2022/07/25 05:20:03;;;;;;;;;;;16.00;99.90;;;;;;5096602;28;19965;-72
2022/07/25 05:22:30;;;;;;;;;;;15.90;99.90;;;;;;5096651;28;20014;-71
2022/07/25 05:24:56;;;;;;;;;;;16.00;99.90;;;;;;5097011;28;20386;-68
2022/07/25 05:27:23;;;;;;;;;;;16.10;99.90;;;;;;5096993;28;19908;-71
2022/07/25 05:29:50;;;;;;;;;;;16.00;99.90;;;;;;5096584;28;19915;-72
2022/07/25 05:32:16;;;;;;;;;;;16.00;99.90;;;;;;5096441;28;20445;-73
2022/07/25 05:34:43;;;;;;;;;;;16.00;99.90;;;;;;5096746;28;19912;-72
2022/07/25 05:37:10;;;;;;;;;;;15.90;99.90;;;;;;5095309;28;20336;-73
2022/07/25 05:39:39;;;;;;;;;;;15.80;99.90;;;;;;5096540;28;19908;-70
2022/07/25 05:42:08;;;;;;;;;;;15.80;99.90;;;;;;5096386;28;20381;-72
2022/07/25 05:44:35;;;;;;;;;;;15.80;99.90;;;;;;5096569;28;20300;-72
2022/07/25 05:47:01;;;;;;;;;;;15.70;99.90;;;;;;5096714;28;19908;-72
2022/07/25 05:49:28;;;;;;;;;;;15.80;99.90;;;;;;5095027;28;20262;-69
2022/07/25 05:51:55;;;;;;;;;;;15.80;99.90;;;;;;5096171;28;20289;-72
2022/07/25 05:54:22;;;;;;;;;;;15.70;99.90;;;;;;5096072;28;19931;-73
2022/07/25 05:56:48;;;;;;;;;;;15.70;99.90;;;;;;5096247;28;19958;-72
2022/07/25 05:59:15;;;;;;;;;;;15.70;99.90;;;;;;5095876;28;19920;-71
2022/07/25 06:01:45;;;;;;;;;;;15.70;99.90;;;;;;5096063;28;19926;-71
2022/07/25 06:04:12;;;;;;;;;;;15.70;99.90;;;;;;5095863;28;19908;-72
2022/07/25 06:06:38;;;;;;;;;;;15.60;99.90;;;;;;5096130;28;19908;-72
2022/07/25 06:09:05;;;;;;;;;;;15.60;99.90;;;;;;5095963;28;19936;-72
2022/07/25 06:11:32;;;;;;;;;;;15.60;99.90;;;;;;5096016;28;19908;-72
2022/07/25 06:13:59;;;;;;;;;;;15.60;99.90;;;;;;5095598;28;20428;-72
2022/07/25 06:16:25;;;;;;;;;;;15.60;99.90;;;;;;5095624;28;19912;-71
2022/07/25 06:18:52;;;;;;;;;;;15.60;99.90;;;;;;5095771;28;19991;-70
2022/07/25 06:21:19;;;;;;;;;;;15.60;99.90;;;;;;5095590;28;19909;-72
2022/07/25 06:23:46;;;;;;;;;;;15.60;99.90;;;;;;5094760;28;19977;-72
2022/07/25 06:26:12;;;;;;;;;;;15.50;99.90;;;;;;5095434;28;19908;-70
2022/07/25 06:28:39;;;;;;;;;;;15.50;99.90;;;;;;5095429;28;19908;-72
2022/07/25 06:31:06;;;;;;;;;;;15.50;99.90;;;;;;5095621;28;19915;-72
2022/07/25 06:33:33;;;;;;;;;;;15.40;99.90;;;;;;5095445;28;19951;-72
2022/07/25 06:35:59;;;;;;;;;;;15.30;99.90;;;;;;5095566;28;19909;-71
2022/07/25 06:38:26;;;;;;;;;;;15.30;99.90;;;;;;5095542;28;20389;-72
2022/07/25 06:40:53;;;;;;;;;;;15.20;99.90;;;;;;5095593;28;19912;-71
2022/07/25 06:43:19;;;;;;;;;;;15.20;99.90;;;;;;5095299;28;19961;-72
2022/07/25 06:45:46;;;;;;;;;;;15.10;99.90;;;;;;5094362;28;19914;-72
2022/07/25 06:48:16;;;;;;;;;;;15.10;99.90;;;;;;5095175;28;19912;-74
2022/07/25 06:50:43;;;;;;;;;;;15.00;99.90;;;;;;5095335;28;19915;-72
2022/07/25 06:53:10;;;;;;;;;;;15.10;99.90;;;;;;5095445;28;19914;-72
2022/07/25 06:55:37;;;;;;;;;;;15.10;99.90;;;;;;5095345;28;20355;-72
2022/07/25 06:58:04;;;;;;;;;;;15.00;99.90;;;;;;5094941;28;20420;-72
2022/07/25 07:00:30;;;;;;;;;;;15.00;99.90;;;;;;5095364;28;19928;-72
2022/07/25 07:03:00;;;;;;;;;;;14.90;99.90;;;;;;5096633;28;20378;-72
2022/07/25 07:05:27;;;;;;;;;;;14.90;99.90;;;;;;5097045;28;20521;-72
2022/07/25 07:07:54;;;;;;;;;;;14.80;99.90;;;;;;5095261;28;19908;-70
2022/07/25 07:10:21;;;;;;;;;;;14.70;99.90;;;;;;5095114;28;19908;-71
2022/07/25 07:12:49;;;;;;;;;;;14.80;99.90;;;;;;5095099;28;19908;-72
2022/07/25 07:15:16;;;;;;;;;;;14.80;99.90;;;;;;5094574;28;19915;-72
2022/07/25 07:17:42;;;;;;;;;;;14.80;99.90;;;;;;5094831;28;20393;-73
2022/07/25 07:20:09;;;;;;;;;;;14.70;99.90;;;;;;5094437;28;19958;-72
2022/07/25 07:22:43;;;;;;;;;;;14.70;99.90;;;;;;5094597;28;20038;-73
2022/07/25 07:25:12;;;;;;;;;;;14.70;99.90;;;;;;5094603;28;19961;-74
2022/07/25 07:27:38;;;;;;;;;;;14.70;99.90;;;;;;5094583;28;19908;-73
2022/07/25 07:30:05;;;;;;;;;;;14.80;99.90;;;;;;5093012;28;19949;-73
2022/07/25 07:32:32;;;;;;;;;;;14.80;99.90;;;;;;5094468;28;19922;-73
2022/07/25 07:34:59;;;;;;;;;;;14.80;99.90;;;;;;5093206;28;19927;-73
2022/07/25 07:37:26;;;;;;;;;;;14.80;99.90;;;;;;5094301;28;19916;-73
2022/07/25 07:39:52;;;;;;;;;;;14.80;99.90;;;;;;5094366;28;19912;-72
2022/07/25 07:42:19;;;;;;;;;;;14.80;99.90;;;;;;5093848;28;19969;-73
2022/07/25 07:44:46;;;;;;;;;;;14.70;99.90;;;;;;5093978;28;19916;-72
2022/07/25 07:47:12;;;;;;;;;;;14.70;99.90;;;;;;5092668;28;20277;-73
2022/07/25 07:49:39;;;;;;;;;;;14.70;99.90;;;;;;5094328;28;19908;-73
2022/07/25 07:52:06;;;;;;;;;;;14.70;99.90;;;;;;5093894;28;19915;-73
2022/07/25 07:57:17;;;;;;;;;;;14.60;99.90;;;;;;5094076;28;19942;-73
2022/07/25 07:59:44;;;;;;;;;;;14.60;99.90;;;;;;5092210;28;19924;-73
2022/07/25 08:02:11;;;;;;;;;;;14.60;99.90;;;;;;5093663;28;20427;-73
2022/07/25 08:04:41;;;;;;;;;;;14.50;99.90;;;;;;5092939;28;20203;-72
2022/07/25 08:07:08;;;;;;;;;;;14.60;99.90;;;;;;5093860;28;19908;-72
2022/07/25 08:09:34;;;;;;;;;;;14.50;99.90;;;;;;5093644;28;19908;-71
2022/07/25 08:12:01;;;;;;;;;;;14.60;99.90;;;;;;5093492;28;19915;-72
2022/07/25 08:14:28;;;;;;;;;;;14.50;99.90;;;;;;5093580;28;19908;-73
2022/07/25 08:16:56;;;;;;;;;;;14.50;99.90;;;;;;5092399;28;19908;-72
2022/07/25 08:19:22;;;;;;;;;;;14.50;99.90;;;;;;5093645;28;19961;-73
2022/07/25 08:21:49;;;;;;;;;;;14.50;99.90;;;;;;5093506;28;19919;-73
2022/07/25 08:24:16;;;;;;;;;;;14.50;99.90;;;;;;5093329;28;19908;-72
2022/07/25 08:26:42;;;;;;;;;;;14.40;99.90;;;;;;5093649;28;20350;-71
2022/07/25 08:29:09;;;;;;;;;;;14.40;99.90;;;;;;5093437;28;20386;-73
2022/07/25 08:31:36;;;;;;;;;;;14.40;99.90;;;;;;5093614;28;19908;-73
2022/07/25 08:34:02;;;;;;;;;;;14.40;99.90;;;;;;5093314;28;19915;-70
2022/07/25 08:36:29;;;;;;;;;;;14.40;99.90;;;;;;5093457;28;19908;-72
2022/07/25 08:38:56;;;;;;;;;;;14.40;99.90;;;;;;5093306;28;19908;-71
2022/07/25 08:41:23;;;;;;;;;;;14.40;99.90;;;;;;5094212;28;19912;-70
2022/07/25 08:43:50;;;;;;;;;;;14.40;99.90;;;;;;5094049;28;19965;-72
2022/07/25 08:46:17;;;;;;;;;;;14.40;99.90;;;;;;5094880;28;19961;-73
2022/07/25 08:48:44;;;;;;;;;;;14.40;99.90;;;;;;5097553;28;20370;-73
2022/07/25 08:51:11;;;;;;;;;;;14.40;99.90;;;;;;5097574;28;19908;-73
2022/07/25 08:53:38;;;;;;;;;;;14.30;99.90;;;;;;5097282;28;19908;-72
2022/07/25 08:56:06;;;;;;;;;;;14.30;99.90;;;;;;5097141;28;20036;-73
2022/07/25 08:58:33;;;;;;;;;;;14.30;99.90;;;;;;5084105;28;19909;-73
2022/07/25 09:01:01;;;;;;;;;;;14.40;99.90;;;;;;5057044;28;19960;-73
2022/07/25 09:03:28;;;;;;;;;;;14.40;99.90;;;;;;5056849;28;19925;-72
2022/07/25 09:05:55;;;;;;;;;;;14.40;99.90;;;;;;5056819;28;19908;-72
2022/07/25 09:08:21;;;;;;;;;;;14.40;99.90;;;;;;5056361;28;19959;-72
2022/07/25 09:10:52;;;;;;;;;;;14.40;99.90;;;;;;5056249;28;20304;-70
2022/07/25 09:13:22;;;;;;;;;;;14.40;99.90;;;;;;5056578;28;19908;-73
2022/07/25 09:15:54;;;;;;;;;;;14.40;99.90;;;;;;5056580;28;20359;-73
2022/07/25 09:18:26;;;;;;;;;;;14.40;99.90;;;;;;5056402;28;19913;-72
2022/07/25 09:21:00;;;;;;;;;;;14.30;99.90;;;;;;5056627;28;19955;-73
2022/07/25 09:23:27;;;;;;;;;;;14.30;99.90;;;;;;5056574;28;20070;-72
2022/07/25 09:26:07;;;;;;;;;;;14.20;99.90;;;;;;5055969;28;19908;-72
2022/07/25 09:28:41;;;;;;;;;;;14.20;99.90;;;;;;5056146;28;20355;-72
2022/07/25 09:31:08;;;;;;;;;;;14.20;99.90;;;;;;5056466;28;20278;-73
2022/07/25 09:33:43;;;;;;;;;;;14.20;99.90;;;;;;5056411;28;19909;-73
2022/07/25 09:36:10;;;;;;;;;;;14.20;99.90;;;;;;5056233;28;20351;-72
2022/07/25 09:38:37;;;;;;;;;;;14.20;99.90;;;;;;5056370;28;19912;-72
2022/07/25 09:41:04;;;;;;;;;;;14.20;99.90;;;;;;5054373;28;20302;-73
2022/07/25 09:43:43;;;;;;;;;;;14.20;99.90;;;;;;5055831;28;19917;-72
2022/07/25 09:46:11;;;;;;;;;;;14.20;99.90;;;;;;5055985;28;19916;-73
2022/07/25 09:48:38;;;;;;;;;;;14.20;99.90;;;;;;5056170;28;19909;-73
2022/07/25 09:51:06;;;;;;;;;;;14.30;99.90;;;;;;5056027;28;19909;-73
2022/07/25 09:53:33;;;;;;;;;;;14.30;99.90;;;;;;5056110;28;20432;-72
2022/07/25 09:56:00;;;;;;;;;;;14.20;99.90;;;;;;5055490;28;20359;-72
2022/07/25 09:58:28;;;;;;;;;;;14.30;99.90;;;;;;5054564;28;19913;-72
2022/07/25 10:01:00;;;;;;;;;;;14.20;99.90;;;;;;5055949;28;19979;-73
2022/07/25 10:03:45;;;;;;;;;;;14.20;99.90;;;;;;5056150;28;19960;-70
2022/07/25 10:06:12;;;;;;;;;;;14.20;99.90;;;;;;5055718;28;19982;-71
2022/07/25 10:08:39;;;;;;;;;;;14.20;99.90;;;;;;5055948;28;19928;-72
2022/07/25 10:11:17;;;;;;;;;;;14.20;99.90;;;;;;5053419;28;19909;-73
2022/07/25 10:13:44;;;;;;;;;;;14.10;99.90;;;;;;5053799;28;20474;-72
2022/07/25 10:16:28;;;;;;;;;;;14.10;99.90;;;;;;5053354;28;19909;-72
2022/07/25 10:18:57;;;;;;;;;;;14.00;99.90;;;;;;5054383;28;19987;-70
2022/07/25 10:21:24;;;;;;;;;;;14.00;99.90;;;;;;5054999;28;19913;-72
2022/07/25 10:24:01;;;;;;;;;;;14.00;99.90;;;;;;5052499;28;19974;-71
2022/07/25 10:26:28;;;;;;;;;;;14.00;99.90;;;;;;5053343;28;19916;-72
2022/07/25 10:28:56;;;;;;;;;;;14.00;99.90;;;;;;5053827;28;19909;-73
2022/07/25 10:31:43;;;;;;;;;;;14.00;99.90;;;;;;5063409;28;20271;-72
2022/07/25 10:34:10;;;;;;;;;;;14.00;99.90;;;;;;5052896;28;19968;-70
2022/07/25 10:36:47;;;;;;;;;;;14.00;99.90;;;;;;5051186;28;19920;-72
2022/07/25 10:39:15;;;;;;;;;;;13.90;99.90;;;;;;5051876;28;19909;-72
2022/07/25 10:41:44;;;;;;;;;;;13.90;99.90;;;;;;5052394;28;19924;-71
2022/07/25 10:44:33;;;;;;;;;;;13.80;99.90;;;;;;5051971;28;19916;-71
2022/07/25 10:47:08;;;;;;;;;;;13.80;99.90;;;;;;5052500;28;19912;-71
2022/07/25 10:49:42;;;;;;;;;;;13.70;99.90;;;;;;5052545;28;20423;-73
2022/07/25 10:52:14;;;;;;;;;;;13.70;99.90;;;;;;5051869;28;19916;-72
2022/07/25 10:54:41;;;;;;;;;;;13.70;99.90;;;;;;5051673;28;19916;-71
2022/07/25 10:57:14;;;;;;;;;;;13.70;99.90;;;;;;5051549;28;19919;-71
2022/07/25 10:59:41;;;;;;;;;;;13.70;99.90;;;;;;5051927;28;20418;-71
2022/07/25 11:02:15;;;;;;;;;;;13.70;99.90;;;;;;5051919;28;19935;-72
2022/07/25 11:04:42;;;;;;;;;;;13.60;99.90;;;;;;5051943;28;19954;-73
2022/07/25 11:07:11;;;;;;;;;;;13.60;99.90;;;;;;5052050;28;19935;-72
2022/07/25 11:09:38;;;;;;;;;;;13.60;99.90;;;;;;5050896;28;19920;-73
2022/07/25 11:12:05;;;;;;;;;;;13.60;99.90;;;;;;5060140;28;20351;-71
2022/07/25 11:14:36;;;;;;;;;;;13.60;99.90;;;;;;5092627;28;19909;-73
2022/07/25 11:17:11;;;;;;;;;;;13.60;99.90;;;;;;5092800;28;19915;-72
2022/07/25 11:19:38;;;;;;;;;;;13.50;99.90;;;;;;5091407;28;19912;-72
2022/07/25 11:22:05;;;;;;;;;;;13.50;99.90;;;;;;5092216;28;19916;-71
2022/07/25 11:24:41;;;;;;;;;;;13.50;99.90;;;;;;5092801;28;19908;-71
2022/07/25 11:27:09;;;;;;;;;;;13.50;99.90;;;;;;5092428;28;19935;-72
2022/07/25 11:29:37;;;;;;;;;;;13.50;99.90;;;;;;5092548;28;19912;-71
2022/07/25 11:32:08;;;;;;;;;;;13.50;99.90;;;;;;5092285;28;20619;-73
2022/07/25 11:34:36;;;;;;;;;;;13.40;99.90;;;;;;5092145;28;19919;-71
2022/07/25 11:37:04;;;;;;;;;;;13.40;99.90;;;;;;5092373;28;20003;-71
2022/07/25 11:39:32;;;;;;;;;;;13.40;99.90;;;;;;5092445;28;20350;-71
2022/07/25 11:42:02;;;;;;;;;;;13.40;99.90;;;;;;5092283;28;19912;-70
2022/07/25 11:44:37;;;;;;;;;;;13.40;99.90;;;;;;5092444;28;20007;-72
2022/07/25 11:47:07;;;;;;;;;;;13.30;99.90;;;;;;5092434;28;19961;-70
2022/07/25 11:49:53;;;;;;;;;;;13.30;99.90;;;;;;5091964;28;19912;-72
2022/07/25 11:52:33;;;;;;;;;;;13.30;99.90;;;;;;5092085;28;19962;-72
2022/07/25 11:55:04;;;;;;;;;;;13.30;99.90;;;;;;5092553;28;20247;-71
2022/07/25 11:57:32;;;;;;;;;;;13.20;99.90;;;;;;5097056;28;19908;-69
2022/07/25 12:00:00;;;;;;;;;;;13.20;99.90;;;;;;5093741;28;19959;-71
2022/07/25 12:02:26;;;;;;;;;;;13.20;99.90;;;;;;5091761;28;19916;-72
2022/07/25 12:04:57;;;;;;;;;;;13.20;99.90;;;;;;5092056;28;20010;-70
2022/07/25 12:07:43;;;;;;;;;;;13.20;99.90;;;;;;5092096;28;20392;-71
2022/07/25 12:10:15;;;;;;;;;;;13.20;99.90;;;;;;5092241;28;20022;-70
2022/07/25 12:12:55;;;;;;;;;;;13.10;99.90;;;;;;5092097;28;19920;-68
2022/07/25 12:15:29;;;;;;;;;;;13.10;99.90;;;;;;5091613;28;19908;-72
2022/07/25 12:17:57;;;;;;;;;;;13.10;99.90;;;;;;5092735;28;20347;-71
2022/07/25 12:20:24;;;;;;;;;;;13.10;99.90;;;;;;5094572;28;19946;-70
2022/07/25 12:22:52;;;;;;;;;;;13.10;99.90;;;;;;5061116;28;19921;-70
2022/07/25 12:25:19;;;;;;;;;;;13.00;99.90;;;;;;5060195;28;20429;-69
2022/07/25 12:27:46;;;;;;;;;;;13.10;99.90;;;;;;5051124;28;19916;-69
2022/07/25 12:30:13;;;;;;;;;;;13.10;99.90;;;;;;5051268;28;19955;-69
2022/07/25 12:32:40;;;;;;;;;;;13.00;99.90;;;;;;5050579;28;19915;-70
2022/07/25 12:35:08;;;;;;;;;;;13.00;99.90;;;;;;5050908;28;20081;-70
2022/07/25 12:37:36;;;;;;;;;;;13.00;99.90;;;;;;5050975;28;19913;-70
2022/07/25 12:40:03;;;;;;;;;;;13.00;99.90;;;;;;5050473;28;20298;-70
2022/07/25 12:42:30;;;;;;;;;;;13.00;99.90;;;;;;5050807;28;19975;-69
2022/07/25 12:44:57;;;;;;;;;;;13.00;99.90;;;;;;5050740;28;19923;-69
2022/07/25 12:47:24;;;;;;;;;;;13.00;99.90;;;;;;5050146;28;20473;-70
2022/07/25 12:49:51;;;;;;;;;;;13.00;99.90;;;;;;5050859;28;19912;-71
2022/07/25 12:52:17;;;;;;;;;;;13.00;99.90;;;;;;5050456;28;20366;-70
2022/07/25 12:54:44;;;;;;;;;;;13.00;99.90;;;;;;5050177;28;20359;-71
2022/07/25 12:57:11;;;;;;;;;;;12.90;99.90;;;;;;5050427;28;20325;-70
2022/07/25 12:59:38;;;;;;;;;;;12.90;99.90;;;;;;5050467;28;20243;-70
2022/07/25 13:02:05;;;;;;;;;;;12.90;99.90;;;;;;5049713;28;19913;-72
2022/07/25 13:04:32;;;;;;;;;;;12.90;99.90;;;;;;5050497;28;19912;-69
2022/07/25 13:06:59;;;;;;;;;;;13.00;99.90;;;;;;5050662;28;20351;-69
2022/07/25 13:09:26;;;;;;;;;;;12.90;99.90;;;;;;5050188;28;19909;-72
2022/07/25 13:11:53;;;;;;;;;;;12.90;99.90;;;;;;5050179;28;19913;-70
2022/07/25 13:14:20;;;;;;;;;;;12.90;99.90;;;;;;5050351;28;19915;-70
2022/07/25 13:16:47;;;;;;;;;;;12.90;99.90;;;;;;5049620;28;20289;-69
2022/07/25 13:19:14;;;;;;;;;;;12.80;99.90;;;;;;5051831;28;19995;-71
2022/07/25 13:21:41;;;;;;;;;;;12.70;99.90;;;;;;5093308;28;19914;-69
2022/07/25 13:24:09;;;;;;;;;;;12.60;99.90;;;;;;5092968;28;19920;-69
2022/07/25 13:26:36;;;;;;;;;;;12.60;99.90;;;;;;5093181;28;19916;-70
2022/07/25 13:29:07;;;;;;;;;;;12.50;99.90;;;;;;5093051;28;19908;-71
2022/07/25 13:31:34;;;;;;;;;;;12.40;99.90;;;;;;5093534;28;19947;-68
2022/07/25 13:34:01;;;;;;;;;;;12.40;99.90;;;;;;5097029;28;20415;-70
2022/07/25 13:36:28;;;;;;;;;;;12.30;99.90;;;;;;5097394;28;20403;-70
2022/07/25 13:38:55;;;;;;;;;;;12.20;99.90;;;;;;5097179;28;19908;-70
2022/07/25 13:41:21;;;;;;;;;;;12.30;99.90;;;;;;5096805;28;19908;-72
2022/07/25 13:43:48;;;;;;;;;;;12.20;99.90;;;;;;5096625;28;19963;-69
2022/07/25 13:46:15;;;;;;;;;;;12.20;99.90;;;;;;5096531;28;19916;-70
2022/07/25 13:48:41;;;;;;;;;;;12.30;99.90;;;;;;5096640;28;19908;-69
2022/07/25 13:51:08;;;;;;;;;;;12.30;99.90;;;;;;5096408;28;19908;-69
2022/07/25 13:53:35;;;;;;;;;;;12.30;99.90;;;;;;5096350;28;19998;-69
2022/07/25 13:56:01;;;;;;;;;;;12.30;99.90;;;;;;5095959;28;19992;-70
2022/07/25 13:58:28;;;;;;;;;;;12.30;99.90;;;;;;5096199;28;19915;-70
2022/07/25 14:00:55;;;;;;;;;;;12.40;99.90;;;;;;5096329;28;19916;-70
2022/07/25 14:03:22;;;;;;;;;;;12.50;99.90;;;;;;5096179;28;20036;-70
2022/07/25 14:05:48;;;;;;;;;;;12.50;99.90;;;;;;5096128;28;19918;-70
2022/07/25 14:08:15;;;;;;;;;;;12.50;99.90;;;;;;5095907;28;19911;-70
2022/07/25 14:10:42;;;;;;;;;;;12.60;99.90;;;;;;5095943;28;19909;-67
2022/07/25 14:13:09;;;;;;;;;;;12.60;99.90;;;;;;5096038;28;20288;-70
2022/07/25 14:15:37;;;;;;;;;;;12.60;99.90;;;;;;5095868;28;19995;-70
2022/07/25 14:18:03;;;;;;;;;;;12.60;99.90;;;;;;5095799;28;19978;-70
2022/07/25 14:20:31;;;;;;;;;;;12.50;99.90;;;;;;5096040;28;19943;-70
2022/07/25 14:22:58;;;;;;;;;;;12.50;99.90;;;;;;5095845;28;19923;-70